메인 페이지
METAR-TAF:

METAR-TAF

공항 :

Pirassununga, 상파울루, 브라질

위도: 21-59S, 경도: 047-20W, 고도: 597m

현재 날씨관측

예보는 1 시간 14분 전, 22:00시(UTC)에 발표되었습니다.
서남서2kt
온도 30°C
습도 38%
기압 1013 hPa
시정: 9000m

METAR: SBYS 182200Z 24002KT 9000 NSC 30/14 Q1013

시각: 20:14 (23:14 UTC)

예보

예보는 32 시간 14분 전, 15:00시(UTC)에 발표되었습니다.
예보 대상 시간: 17일 18시부터 18일 06시까지 (UTC)
12kt
시정 10km 이상
1500m 미만 상공 구름 및 적란운 없음
전환 중
17일 19시부터 17일 21시까지 (UTC)
시정 10km 이상
고도 4000ft 상공 구름 보통
전환 중
18일 02시부터 18일 04시까지 (UTC)
북북동8kt

TAF: SBYS 171500Z 1718/1806 19012KT CAVOK TX33/1718Z TN16/1806Z BECMG 1719/1721 9999 SCT040 BECMG 1802/1804 03008KT RMK PEN

4,000개 이상의 공항 관측 자료 및 예보 (METAR 및 TAF 보고).

지도상에서 검색 가능한 기상관측소가 노란 점과 빨간 점으로 표시되어 있습니다.

기상관측소 명을 보려면 표시 위로 마우스를 이동하세요.

날씨 관측과 예보를 보려면 클릭하세요.

지도 변경 : 확대하려면 엑스 표시가 있는 녹색 버튼, 축소하려면 빼기 표시가 있는 녹색 버튼, 다음 페이지의 지도를 보려면 녹색 화살표를 클릭하세요.


METAR-TAF: